createdAt,value
2022-10-28T00:03:48.531Z,0
2022-10-28T00:08:50.328Z,0
2022-10-28T00:13:52.005Z,0
2022-10-28T00:18:53.840Z,0
2022-10-28T00:23:55.736Z,0
2022-10-28T00:28:57.522Z,0
2022-10-28T00:33:59.725Z,0
2022-10-28T00:39:01.505Z,0
2022-10-28T00:44:03.470Z,0
2022-10-28T00:49:05.498Z,0.88715
2022-10-28T00:54:07.393Z,0
2022-10-28T00:59:09.371Z,0
2022-10-28T01:04:11.347Z,0
2022-10-28T01:09:13.227Z,0
2022-10-28T01:14:14.809Z,0
2022-10-28T01:19:16.429Z,0
2022-10-28T01:24:17.861Z,0
2022-10-28T01:29:19.351Z,0
2022-10-28T01:34:21.302Z,0
2022-10-28T01:39:22.780Z,0
2022-10-28T01:44:24.218Z,0
2022-10-28T01:49:25.811Z,0
2022-10-28T01:54:27.366Z,0
2022-10-28T01:59:28.873Z,0
2022-10-28T02:04:30.569Z,0
2022-10-28T02:09:32.110Z,0
2022-10-28T02:14:33.839Z,0
2022-10-28T02:19:35.695Z,0
2022-10-28T02:24:37.451Z,0
2022-10-28T02:29:39.125Z,0
2022-10-28T02:34:40.815Z,0
2022-10-28T02:39:42.293Z,0
2022-10-28T02:44:44.046Z,0
2022-10-28T02:49:45.602Z,0
2022-10-28T02:54:47.075Z,0.88715
2022-10-28T02:59:48.538Z,0.88715
2022-10-28T03:04:50.379Z,1.16185
2022-10-28T03:09:51.907Z,1.53075
2022-10-28T03:14:53.361Z,2.01475
2022-10-28T03:19:55.079Z,7.7089
2022-10-28T03:24:56.528Z,19.3274
2022-10-28T03:29:57.996Z,28.7515
2022-10-28T03:34:59.826Z,45.1467
2022-10-28T03:40:01.347Z,63.07265
2022-10-28T03:45:02.781Z,82.40005
2022-10-28T03:50:04.428Z,108.69855
2022-10-28T03:55:05.985Z,135.1815
2022-10-28T04:00:07.790Z,330.1174
2022-10-28T04:05:09.757Z,619.7735
2022-10-28T04:10:11.720Z,1468.30585
2022-10-28T04:15:13.462Z,502.95915
2022-10-28T04:20:15.292Z,291.55205
2022-10-28T04:25:16.811Z,339.52065
2022-10-28T04:30:18.367Z,375.538
2022-10-28T04:35:20.175Z,449.1966
2022-10-28T04:40:21.744Z,482.2266
2022-10-28T04:45:23.555Z,510.18515
2022-10-28T04:50:25.261Z,515.9944
2022-10-28T04:55:26.926Z,545.53885
2022-10-28T05:00:28.734Z,563.40965
2022-10-28T05:05:30.519Z,582.12855
2022-10-28T05:10:32.125Z,555.59045
2022-10-28T05:15:33.772Z,587.3673
2022-10-28T05:20:35.224Z,600.42525
2022-10-28T05:25:36.982Z,578.757
2022-10-28T05:30:38.747Z,581.91165
2022-10-28T05:35:40.693Z,534.6447
2022-10-28T05:40:42.343Z,513.30735
2022-10-28T05:45:44.072Z,529.13205
2022-10-28T05:50:45.940Z,535.8464
2022-10-28T05:55:48.113Z,532.1954
2022-10-28T06:00:49.831Z,524.7641
2022-10-28T06:05:51.847Z,529.9097
2022-10-28T06:10:51.942Z,525.22615
2022-10-28T06:15:53.798Z,529.04445
2022-10-28T06:20:55.943Z,529.1376
2022-10-28T06:30:59.415Z,524.97125
2022-10-28T06:36:01.479Z,515.6403
2022-10-28T06:41:03.526Z,521.5427
2022-10-28T06:46:05.291Z,526.76245
2022-10-28T06:51:08.940Z,515.42155
2022-10-28T06:56:10.855Z,511.29135
2022-10-28T07:01:12.714Z,501.1123
2022-10-28T07:11:16.556Z,498.05265
2022-10-28T07:16:18.058Z,490.14215
2022-10-28T07:21:19.839Z,494.21905
2022-10-28T07:26:21.421Z,489.7622
2022-10-28T07:31:23.015Z,503.9839
2022-10-28T07:36:25.097Z,517.2575
2022-10-28T07:41:26.585Z,529.2274
2022-10-28T07:46:28.078Z,541.43435
2022-10-28T07:51:29.802Z,560.5151
2022-10-28T07:56:31.560Z,573.0777
2022-10-28T08:01:33.537Z,585.4624
2022-10-28T08:06:35.675Z,601.46185
2022-10-28T08:11:37.455Z,616.928
2022-10-28T08:16:39.313Z,630.0238
2022-10-28T08:21:41.296Z,641.4011
2022-10-28T08:26:43.255Z,660.7783
2022-10-28T08:31:45.019Z,677.13335
2022-10-28T08:36:47.195Z,692.1846
2022-10-28T08:41:49.012Z,707.4137
2022-10-28T08:46:50.930Z,723.65015
2022-10-28T08:51:52.815Z,740.12375
2022-10-28T08:56:54.687Z,754.8788
2022-10-28T09:01:56.432Z,769.57465
2022-10-28T09:06:59.563Z,787.11475
2022-10-28T09:12:01.326Z,799.67735
2022-10-28T09:17:03.149Z,817.33605
2022-10-28T09:22:05.217Z,833.51325
2022-10-28T09:27:07.108Z,848.1498
2022-10-28T09:32:08.851Z,861.6012
2022-10-28T09:37:10.820Z,880.20805
2022-10-28T09:42:12.600Z,893.2446
2022-10-28T09:47:14.398Z,910.9626
2022-10-28T09:52:16.390Z,927.49545
2022-10-28T09:57:18.041Z,940.47285
2022-10-28T10:02:19.693Z,956.6502
2022-10-28T10:07:21.375Z,965.4203
2022-10-28T10:12:22.771Z,984.205
2022-10-28T10:17:24.551Z,1003.523
2022-10-28T10:22:26.100Z,1021.3596
2022-10-28T10:27:27.548Z,1033.863
2022-10-28T10:32:29.311Z,1049.9219
2022-10-28T10:37:31.377Z,1064.38085
2022-10-28T10:42:33.688Z,1080.38045
2022-10-28T10:47:36.501Z,1112.7083
2022-10-28T10:52:38.513Z,1141.14605
2022-10-28T10:57:40.210Z,1160.34415
2022-10-28T11:02:42.132Z,1194.0378
2022-10-28T11:07:45.309Z,1217.2748
2022-10-28T11:12:49.249Z,1253.03355
2022-10-28T11:17:51.584Z,1282.0608
2022-10-28T11:22:53.672Z,1310.00035
2022-10-28T11:27:57.606Z,1338.4191
2022-10-28T11:33:08.097Z,1355.21935
2022-10-28T11:38:26.960Z,1385.3343
2022-10-28T11:43:28.737Z,1409.7693
2022-10-28T11:48:30.208Z,1446.5416
2022-10-28T11:53:32.105Z,1483.86725
2022-10-28T11:58:33.758Z,1511.10515
2022-10-28T12:03:35.579Z,1542.0682
2022-10-28T12:08:37.695Z,1566.29975
2022-10-28T12:13:39.597Z,1594.5702
2022-10-28T12:18:41.504Z,1638.074
2022-10-28T12:23:43.250Z,1668.2441
2022-10-28T12:28:45.164Z,1696.75415
2022-10-28T12:33:46.934Z,1721.53905
2022-10-28T12:38:49.159Z,1736.1259
2022-10-28T12:43:51.115Z,1776.089
2022-10-28T12:48:52.875Z,1817.7673
2022-10-28T12:53:54.680Z,1860.23855
2022-10-28T12:58:56.602Z,1905.69715
2022-10-28T13:03:58.433Z,1910.80475
2022-10-28T13:09:00.537Z,1934.13305
2022-10-28T13:14:02.612Z,1970.79505
2022-10-28T13:19:04.695Z,2009.78075
2022-10-28T13:24:06.468Z,2051.82795
2022-10-28T13:29:08.313Z,2068.07485
2022-10-28T13:34:10.145Z,2086.9592
2022-10-28T13:39:12.321Z,2094.6491
2022-10-28T13:44:14.228Z,2103.86975
2022-10-28T13:49:16.023Z,2095.9574
2022-10-28T13:54:17.919Z,2099.3688
2022-10-28T13:59:19.511Z,2083.04775
2022-10-28T14:04:21.020Z,2066.02505
2022-10-28T14:09:22.811Z,2053.7049
2022-10-28T14:14:24.359Z,2009.83035
2022-10-28T14:19:25.797Z,1974.69725
2022-10-28T14:24:27.336Z,1907.14265
2022-10-28T14:29:28.849Z,1844.4389
2022-10-28T14:34:30.326Z,1763.01625
2022-10-28T14:39:32.080Z,1698.65245
2022-10-28T14:44:33.610Z,1612.15835
2022-10-28T14:49:35.256Z,1509.9327
2022-10-28T14:54:38.222Z,1425.55885
2022-10-28T14:59:41.727Z,1347.60275
2022-10-28T15:04:43.562Z,1233.3707
2022-10-28T15:09:45.357Z,1096.87905
2022-10-28T15:14:47.305Z,578.88445
2022-10-28T15:19:48.959Z,451.15325
2022-10-28T15:24:50.811Z,231.09785
2022-10-28T15:29:52.453Z,187.0027
2022-10-28T15:34:54.219Z,156.61015
2022-10-28T15:40:00.273Z,138.62905
2022-10-28T15:45:07.064Z,120.03945
2022-10-28T15:50:09.020Z,100.6569
2022-10-28T15:55:10.852Z,83.4136
2022-10-28T16:00:12.709Z,65.8014
2022-10-28T16:05:14.340Z,49.1666
2022-10-28T16:10:16.101Z,36.38625
2022-10-28T16:15:17.575Z,28.2533
2022-10-28T16:20:19.266Z,17.79665
2022-10-28T16:25:20.835Z,13.9422
2022-10-28T16:35:23.814Z,2.50815
2022-10-28T16:40:50.199Z,1.16185
2022-10-28T16:45:53.812Z,0
2022-10-28T16:50:55.736Z,0.88715
2022-10-28T16:55:57.815Z,0
2022-10-28T17:00:59.832Z,0
2022-10-28T17:06:01.335Z,0
2022-10-28T17:11:03.217Z,0
2022-10-28T17:16:04.866Z,0
2022-10-28T17:21:06.706Z,0
2022-10-28T17:26:08.739Z,0
2022-10-28T17:31:10.703Z,0
2022-10-28T17:36:12.474Z,0
2022-10-28T17:41:14.669Z,0
2022-10-28T17:46:16.556Z,0
2022-10-28T17:51:18.640Z,0
2022-10-28T17:56:20.430Z,0.88715
2022-10-28T18:01:22.015Z,0
2022-10-28T18:06:23.893Z,0.88715
2022-10-28T18:11:25.634Z,0.88715
2022-10-28T18:16:27.105Z,0
2022-10-28T18:21:28.603Z,0
2022-10-28T18:26:30.589Z,0
2022-10-28T18:31:32.345Z,0
2022-10-28T18:36:34.494Z,0
2022-10-28T18:41:36.688Z,0
2022-10-28T18:46:38.412Z,0
2022-10-28T18:51:40.250Z,0
2022-10-28T18:56:46.210Z,0
2022-10-28T19:01:50.104Z,0
2022-10-28T19:06:51.939Z,0
2022-10-28T19:11:53.914Z,0
2022-10-28T19:16:55.894Z,0
2022-10-28T19:21:57.642Z,0
2022-10-28T19:26:59.448Z,0
2022-10-28T19:32:01.348Z,0
2022-10-28T19:37:03.233Z,0
2022-10-28T19:42:05.302Z,0.88715
2022-10-28T19:47:07.181Z,0.88715
2022-10-28T19:52:08.941Z,0
2022-10-28T19:57:11.052Z,0.88715
2022-10-28T20:02:12.981Z,0.88715
2022-10-28T20:07:14.974Z,0
2022-10-28T20:12:17.219Z,0
2022-10-28T20:17:19.053Z,0
2022-10-28T20:22:20.646Z,0
2022-10-28T20:27:22.302Z,0.88715
2022-10-28T20:32:23.741Z,0.88715
2022-10-28T20:37:25.129Z,0.88715
2022-10-28T20:42:26.958Z,0
2022-10-28T20:47:28.526Z,0.88715
2022-10-28T20:52:30.376Z,0
2022-10-28T20:57:31.770Z,0
2022-10-28T21:02:33.457Z,0
2022-10-28T21:07:35.150Z,0
2022-10-28T21:12:37.068Z,0.88715
2022-10-28T21:17:38.616Z,0.88715
2022-10-28T21:22:40.285Z,0.88715
2022-10-28T21:27:41.954Z,0.88715
2022-10-28T21:32:43.424Z,0
2022-10-28T21:37:45.096Z,0
2022-10-28T21:42:47.149Z,0.88715
2022-10-28T21:47:48.713Z,0.88715
2022-10-28T21:52:50.228Z,0.88715
2022-10-28T21:57:52.003Z,0
2022-10-28T22:02:53.771Z,0
2022-10-28T22:07:55.492Z,0
2022-10-28T22:12:57.567Z,0
2022-10-28T22:17:59.173Z,0
2022-10-28T22:23:00.698Z,0.88715
2022-10-28T22:28:02.415Z,0.88715
2022-10-28T22:33:03.875Z,0.88715
2022-10-28T22:38:05.316Z,0.88715
2022-10-28T22:43:07.266Z,0.88715
2022-10-28T22:48:08.720Z,0
2022-10-28T22:53:10.754Z,0
2022-10-28T22:58:12.493Z,0.88715
2022-10-28T23:03:14.489Z,0
2022-10-28T23:08:16.070Z,0
2022-10-28T23:13:17.920Z,0.88715
2022-10-28T23:18:19.373Z,0
2022-10-28T23:23:21.252Z,0
2022-10-28T23:28:23.175Z,0
2022-10-28T23:33:24.656Z,0.88715
2022-10-28T23:38:26.120Z,0
2022-10-28T23:43:27.803Z,0.88715
2022-10-28T23:48:29.277Z,0.88715
2022-10-28T23:53:31.456Z,0
2022-10-28T23:58:33.171Z,0
